sensor_id;sensor_type;location;lat;lon;timestamp;pressure;altitude;pressure_sealevel;temperature;humidity
69630;BME280;56857;52.212;5.496;2024-01-30T00:00:39;102710.38;;;7.41;100.00
69630;BME280;56857;52.212;5.496;2024-01-30T00:03:04;102711.44;;;7.39;100.00
69630;BME280;56857;52.212;5.496;2024-01-30T00:05:30;102713.31;;;7.37;100.00
69630;BME280;56857;52.212;5.496;2024-01-30T00:07:55;102705.59;;;7.34;100.00
69630;BME280;56857;52.212;5.496;2024-01-30T00:10:20;102710.44;;;7.27;100.00
69630;BME280;56857;52.212;5.496;2024-01-30T00:12:46;102709.06;;;7.22;100.00
69630;BME280;56857;52.212;5.496;2024-01-30T00:15:11;102712.09;;;7.15;100.00
69630;BME280;56857;52.212;5.496;2024-01-30T00:17:37;102707.34;;;7.08;100.00
69630;BME280;56857;52.212;5.496;2024-01-30T00:20:03;102707.66;;;7.03;100.00
69630;BME280;56857;52.212;5.496;2024-01-30T00:22:28;102708.06;;;6.97;100.00
69630;BME280;56857;52.212;5.496;2024-01-30T00:24:53;102710.13;;;6.92;100.00
69630;BME280;56857;52.212;5.496;2024-01-30T00:27:19;102705.91;;;6.89;100.00
69630;BME280;56857;52.212;5.496;2024-01-30T00:29:44;102702.34;;;6.90;100.00
69630;BME280;56857;52.212;5.496;2024-01-30T00:32:09;102708.13;;;6.95;100.00
69630;BME280;56857;52.212;5.496;2024-01-30T00:34:35;102701.81;;;6.98;100.00
69630;BME280;56857;52.212;5.496;2024-01-30T00:37:00;102702.59;;;7.00;100.00
69630;BME280;56857;52.212;5.496;2024-01-30T00:39:25;102703.31;;;7.02;100.00
69630;BME280;56857;52.212;5.496;2024-01-30T00:41:51;102705.03;;;7.03;100.00
69630;BME280;56857;52.212;5.496;2024-01-30T00:44:16;102701.50;;;7.03;100.00
69630;BME280;56857;52.212;5.496;2024-01-30T00:46:41;102700.66;;;7.02;100.00
69630;BME280;56857;52.212;5.496;2024-01-30T00:49:06;102699.75;;;7.03;100.00
69630;BME280;56857;52.212;5.496;2024-01-30T00:51:32;102697.19;;;7.02;100.00
69630;BME280;56857;52.212;5.496;2024-01-30T00:53:57;102699.84;;;7.02;100.00
69630;BME280;56857;52.212;5.496;2024-01-30T00:56:22;102698.03;;;7.02;100.00
69630;BME280;56857;52.212;5.496;2024-01-30T00:58:48;102703.22;;;7.04;100.00
69630;BME280;56857;52.212;5.496;2024-01-30T01:01:13;102699.63;;;7.05;100.00
69630;BME280;56857;52.212;5.496;2024-01-30T01:03:38;102704.91;;;7.05;100.00
69630;BME280;56857;52.212;5.496;2024-01-30T01:06:04;102697.94;;;7.04;100.00
69630;BME280;56857;52.212;5.496;2024-01-30T01:08:29;102698.16;;;7.01;100.00
69630;BME280;56857;52.212;5.496;2024-01-30T01:10:55;102694.66;;;7.00;100.00
69630;BME280;56857;52.212;5.496;2024-01-30T01:13:20;102690.31;;;6.99;100.00
69630;BME280;56857;52.212;5.496;2024-01-30T01:15:45;102688.66;;;6.98;100.00
69630;BME280;56857;52.212;5.496;2024-01-30T01:18:10;102687.81;;;6.97;100.00
69630;BME280;56857;52.212;5.496;2024-01-30T01:20:36;102683.56;;;6.95;100.00
69630;BME280;56857;52.212;5.496;2024-01-30T01:23:01;102681.88;;;6.94;100.00
69630;BME280;56857;52.212;5.496;2024-01-30T01:25:26;102681.03;;;6.93;100.00
69630;BME280;56857;52.212;5.496;2024-01-30T01:27:52;102677.66;;;6.91;100.00
69630;BME280;56857;52.212;5.496;2024-01-30T01:30:17;102670.72;;;6.90;100.00
69630;BME280;56857;52.212;5.496;2024-01-30T01:32:43;102666.47;;;6.88;100.00
69630;BME280;56857;52.212;5.496;2024-01-30T01:35:08;102669.09;;;6.88;100.00
69630;BME280;56857;52.212;5.496;2024-01-30T01:37:33;102659.47;;;6.87;100.00
69630;BME280;56857;52.212;5.496;2024-01-30T01:39:59;102655.09;;;6.87;100.00
69630;BME280;56857;52.212;5.496;2024-01-30T01:42:24;102665.63;;;6.87;100.00
69630;BME280;56857;52.212;5.496;2024-01-30T01:44:50;102667.41;;;6.87;100.00
69630;BME280;56857;52.212;5.496;2024-01-30T01:47:15;102672.66;;;6.87;100.00
69630;BME280;56857;52.212;5.496;2024-01-30T01:49:41;102670.03;;;6.87;100.00
69630;BME280;56857;52.212;5.496;2024-01-30T01:52:06;102669.19;;;6.86;100.00
69630;BME280;56857;52.212;5.496;2024-01-30T01:54:32;102669.19;;;6.86;100.00
69630;BME280;56857;52.212;5.496;2024-01-30T01:56:57;102666.56;;;6.86;100.00
69630;BME280;56857;52.212;5.496;2024-01-30T01:59:23;102664.75;;;6.87;100.00
69630;BME280;56857;52.212;5.496;2024-01-30T02:01:49;102673.63;;;6.86;100.00
69630;BME280;56857;52.212;5.496;2024-01-30T02:04:15;102676.38;;;6.84;100.00
69630;BME280;56857;52.212;5.496;2024-01-30T02:06:42;102671.19;;;6.83;100.00
69630;BME280;56857;52.212;5.496;2024-01-30T02:09:08;102669.50;;;6.82;100.00
69630;BME280;56857;52.212;5.496;2024-01-30T02:11:34;102668.66;;;6.81;100.00
69630;BME280;56857;52.212;5.496;2024-01-30T02:14:03;102661.69;;;6.80;100.00
69630;BME280;56857;52.212;5.496;2024-01-30T02:16:29;102662.72;;;6.78;100.00
69630;BME280;56857;52.212;5.496;2024-01-30T02:18:54;102666.31;;;6.77;100.00
69630;BME280;56857;52.212;5.496;2024-01-30T02:21:20;102655.88;;;6.75;100.00
69630;BME280;56857;52.212;5.496;2024-01-30T02:23:47;102659.34;;;6.76;100.00
69630;BME280;56857;52.212;5.496;2024-01-30T02:26:13;102659.44;;;6.74;100.00
69630;BME280;56857;52.212;5.496;2024-01-30T02:28:39;102659.44;;;6.74;100.00
69630;BME280;56857;52.212;5.496;2024-01-30T02:31:05;102665.56;;;6.74;100.00
69630;BME280;56857;52.212;5.496;2024-01-30T02:33:30;102666.31;;;6.77;100.00
69630;BME280;56857;52.212;5.496;2024-01-30T02:35:56;102662.00;;;6.76;100.00
69630;BME280;56857;52.212;5.496;2024-01-30T02:38:21;102666.50;;;6.73;100.00
69630;BME280;56857;52.212;5.496;2024-01-30T02:40:47;102674.41;;;6.73;100.00
69630;BME280;56857;52.212;5.496;2024-01-30T02:43:12;102663.16;;;6.71;100.00
69630;BME280;56857;52.212;5.496;2024-01-30T02:45:37;102663.16;;;6.71;100.00
69630;BME280;56857;52.212;5.496;2024-01-30T02:48:03;102660.59;;;6.70;100.00
69630;BME280;56857;52.212;5.496;2024-01-30T02:50:28;102655.31;;;6.70;100.00
69630;BME280;56857;52.212;5.496;2024-01-30T02:52:54;102656.28;;;6.69;100.00
69630;BME280;56857;52.212;5.496;2024-01-30T02:55:19;102654.56;;;6.68;100.00
69630;BME280;56857;52.212;5.496;2024-01-30T02:57:44;102643.09;;;6.69;100.00
69630;BME280;56857;52.212;5.496;2024-01-30T03:00:10;102635.09;;;6.70;100.00
69630;BME280;56857;52.212;5.496;2024-01-30T03:02:36;102620.31;;;6.68;100.00
69630;BME280;56857;52.212;5.496;2024-01-30T03:05:02;102619.47;;;6.67;100.00
69630;BME280;56857;52.212;5.496;2024-01-30T03:07:28;102637.06;;;6.67;100.00
69630;BME280;56857;52.212;5.496;2024-01-30T03:09:53;102632.84;;;6.64;100.00
69630;BME280;56857;52.212;5.496;2024-01-30T03:12:19;102624.09;;;6.64;100.00
69630;BME280;56857;52.212;5.496;2024-01-30T03:14:44;102616.31;;;6.62;100.00
69630;BME280;56857;52.212;5.496;2024-01-30T03:17:09;102620.72;;;6.62;100.00
69630;BME280;56857;52.212;5.496;2024-01-30T03:19:35;102619.03;;;6.61;100.00
69630;BME280;56857;52.212;5.496;2024-01-30T03:22:00;102621.56;;;6.62;100.00
69630;BME280;56857;52.212;5.496;2024-01-30T03:24:26;102620.50;;;6.65;100.00
69630;BME280;56857;52.212;5.496;2024-01-30T03:26:51;102614.41;;;6.64;100.00
69630;BME280;56857;52.212;5.496;2024-01-30T03:29:16;102613.47;;;6.65;100.00
69630;BME280;56857;52.212;5.496;2024-01-30T03:31:42;102614.50;;;6.63;100.00
69630;BME280;56857;52.212;5.496;2024-01-30T03:34:07;102611.88;;;6.63;100.00
69630;BME280;56857;52.212;5.496;2024-01-30T03:36:32;102616.19;;;6.64;100.00
69630;BME280;56857;52.212;5.496;2024-01-30T03:38:58;102611.75;;;6.64;100.00
69630;BME280;56857;52.212;5.496;2024-01-30T03:41:23;102615.16;;;6.66;100.00
69630;BME280;56857;52.212;5.496;2024-01-30T03:43:49;102614.31;;;6.66;100.00
69630;BME280;56857;52.212;5.496;2024-01-30T03:46:15;102612.53;;;6.66;100.00
69630;BME280;56857;52.212;5.496;2024-01-30T03:48:40;102598.50;;;6.66;100.00
69630;BME280;56857;52.212;5.496;2024-01-30T03:51:06;102596.72;;;6.66;100.00
69630;BME280;56857;52.212;5.496;2024-01-30T03:53:31;102592.28;;;6.67;100.00
69630;BME280;56857;52.212;5.496;2024-01-30T03:55:56;102591.31;;;6.68;100.00
69630;BME280;56857;52.212;5.496;2024-01-30T03:58:22;102587.75;;;6.69;100.00
69630;BME280;56857;52.212;5.496;2024-01-30T04:00:47;102588.59;;;6.69;100.00
69630;BME280;56857;52.212;5.496;2024-01-30T04:03:14;102589.44;;;6.70;100.00
69630;BME280;56857;52.212;5.496;2024-01-30T04:05:39;102585.84;;;6.71;100.00
69630;BME280;56857;52.212;5.496;2024-01-30T04:08:05;102585.75;;;6.72;100.00
69630;BME280;56857;52.212;5.496;2024-01-30T04:10:30;102591.75;;;6.74;100.00
69630;BME280;56857;52.212;5.496;2024-01-30T04:12:56;102596.19;;;6.74;100.00
69630;BME280;56857;52.212;5.496;2024-01-30T04:15:21;102597.97;;;6.73;100.00
69630;BME280;56857;52.212;5.496;2024-01-30T04:17:46;102597.97;;;6.73;100.00
69630;BME280;56857;52.212;5.496;2024-01-30T04:20:15;102598.81;;;6.74;100.00
69630;BME280;56857;52.212;5.496;2024-01-30T04:22:42;102597.91;;;6.75;100.00
69630;BME280;56857;52.212;5.496;2024-01-30T04:25:08;102607.56;;;6.74;100.00
69630;BME280;56857;52.212;5.496;2024-01-30T04:27:34;102604.00;;;6.76;100.00
69630;BME280;56857;52.212;5.496;2024-01-30T04:29:59;102604.84;;;6.76;100.00
69630;BME280;56857;52.212;5.496;2024-01-30T04:32:24;102596.00;;;6.77;100.00
69630;BME280;56857;52.212;5.496;2024-01-30T04:34:49;102594.94;;;6.80;100.00
69630;BME280;56857;52.212;5.496;2024-01-30T04:37:15;102591.47;;;6.79;100.00
69630;BME280;56857;52.212;5.496;2024-01-30T04:39:40;102589.59;;;6.81;100.00
69630;BME280;56857;52.212;5.496;2024-01-30T04:42:05;102578.94;;;6.83;100.00
69630;BME280;56857;52.212;5.496;2024-01-30T04:44:31;102576.19;;;6.84;100.00
69630;BME280;56857;52.212;5.496;2024-01-30T04:46:56;102577.03;;;6.85;100.00
69630;BME280;56857;52.212;5.496;2024-01-30T04:49:21;102565.53;;;6.86;100.00
69630;BME280;56857;52.212;5.496;2024-01-30T04:51:47;102559.31;;;6.87;100.00
69630;BME280;56857;52.212;5.496;2024-01-30T04:54:12;102561.88;;;6.88;100.00
69630;BME280;56857;52.212;5.496;2024-01-30T04:56:37;102565.25;;;6.90;100.00
69630;BME280;56857;52.212;5.496;2024-01-30T04:59:03;102574.00;;;6.91;100.00
69630;BME280;56857;52.212;5.496;2024-01-30T05:01:29;102568.81;;;6.89;100.00
69630;BME280;56857;52.212;5.496;2024-01-30T05:03:54;102573.25;;;6.89;100.00
69630;BME280;56857;52.212;5.496;2024-01-30T05:06:26;102571.25;;;6.92;100.00
69630;BME280;56857;52.212;5.496;2024-01-30T05:08:53;102580.00;;;6.93;100.00
69630;BME280;56857;52.212;5.496;2024-01-30T05:11:18;102583.47;;;6.93;100.00
69630;BME280;56857;52.212;5.496;2024-01-30T05:13:44;102589.63;;;6.94;100.00
69630;BME280;56857;52.212;5.496;2024-01-30T05:16:09;102583.38;;;6.95;100.00
69630;BME280;56857;52.212;5.496;2024-01-30T05:18:34;102584.22;;;6.95;100.00
69630;BME280;56857;52.212;5.496;2024-01-30T05:20:59;102575.47;;;6.95;100.00
69630;BME280;56857;52.212;5.496;2024-01-30T05:23:25;102575.34;;;6.96;100.00
69630;BME280;56857;52.212;5.496;2024-01-30T05:25:50;102577.16;;;6.96;100.00
69630;BME280;56857;52.212;5.496;2024-01-30T05:28:15;102582.34;;;6.97;100.00
69630;BME280;56857;52.212;5.496;2024-01-30T05:30:41;102583.19;;;6.98;100.00
69630;BME280;56857;52.212;5.496;2024-01-30T05:33:06;102573.47;;;6.99;100.00
69630;BME280;56857;52.212;5.496;2024-01-30T05:35:31;102553.13;;;7.01;100.00
69630;BME280;56857;52.212;5.496;2024-01-30T05:37:56;102566.31;;;7.01;100.00
69630;BME280;56857;52.212;5.496;2024-01-30T05:40:22;102560.91;;;7.02;100.00
69630;BME280;56857;52.212;5.496;2024-01-30T05:42:47;102555.56;;;7.04;100.00
69630;BME280;56857;52.212;5.496;2024-01-30T05:45:13;102555.44;;;7.05;100.00
69630;BME280;56857;52.212;5.496;2024-01-30T05:47:39;102568.53;;;7.07;100.00
69630;BME280;56857;52.212;5.496;2024-01-30T05:50:05;102562.31;;;7.08;100.00
69630;BME280;56857;52.212;5.496;2024-01-30T05:52:30;102582.44;;;7.09;100.00
69630;BME280;56857;52.212;5.496;2024-01-30T05:54:56;102584.03;;;7.11;100.00
69630;BME280;56857;52.212;5.496;2024-01-30T05:57:21;102571.59;;;7.13;100.00
69630;BME280;56857;52.212;5.496;2024-01-30T05:59:46;102565.47;;;7.13;100.00
69630;BME280;56857;52.212;5.496;2024-01-30T06:02:12;102573.28;;;7.14;100.00
69630;BME280;56857;52.212;5.496;2024-01-30T06:04:37;102558.19;;;7.16;100.00
69630;BME280;56857;52.212;5.496;2024-01-30T06:07:02;102573.06;;;7.17;100.00
69630;BME280;56857;52.212;5.496;2024-01-30T06:09:28;102585.28;;;7.18;100.00
69630;BME280;56857;52.212;5.496;2024-01-30T06:11:53;102579.19;;;7.18;100.00
69630;BME280;56857;52.212;5.496;2024-01-30T06:14:18;102583.41;;;7.20;100.00
69630;BME280;56857;52.212;5.496;2024-01-30T06:16:44;102569.25;;;7.22;100.00
69630;BME280;56857;52.212;5.496;2024-01-30T06:19:09;102578.03;;;7.22;100.00
69630;BME280;56857;52.212;5.496;2024-01-30T06:21:34;102578.88;;;7.23;100.00
69630;BME280;56857;52.212;5.496;2024-01-30T06:24:00;102581.41;;;7.24;100.00
69630;BME280;56857;52.212;5.496;2024-01-30T06:26:25;102587.44;;;7.26;100.00
69630;BME280;56857;52.212;5.496;2024-01-30T06:28:50;102588.19;;;7.28;100.00
69630;BME280;56857;52.212;5.496;2024-01-30T06:31:16;102573.19;;;7.29;100.00
69630;BME280;56857;52.212;5.496;2024-01-30T06:33:41;102567.72;;;7.32;100.00
69630;BME280;56857;52.212;5.496;2024-01-30T06:36:06;102584.25;;;7.34;100.00
69630;BME280;56857;52.212;5.496;2024-01-30T06:38:31;102580.78;;;7.33;100.00
69630;BME280;56857;52.212;5.496;2024-01-30T06:40:57;102578.75;;;7.37;100.00
69630;BME280;56857;52.212;5.496;2024-01-30T06:43:22;102586.59;;;7.38;100.00
69630;BME280;56857;52.212;5.496;2024-01-30T06:45:47;102586.47;;;7.40;100.00
69630;BME280;56857;52.212;5.496;2024-01-30T06:48:13;102578.47;;;7.41;100.00
69630;BME280;56857;52.212;5.496;2024-01-30T06:50:38;102590.59;;;7.44;100.00
69630;BME280;56857;52.212;5.496;2024-01-30T06:53:03;102604.31;;;7.49;100.00
69630;BME280;56857;52.212;5.496;2024-01-30T06:55:29;102588.47;;;7.49;100.00
69630;BME280;56857;52.212;5.496;2024-01-30T06:57:54;102597.03;;;7.53;100.00
69630;BME280;56857;52.212;5.496;2024-01-30T07:00:20;102600.50;;;7.53;100.00
69630;BME280;56857;52.212;5.496;2024-01-30T07:02:45;102593.31;;;7.55;100.00
69630;BME280;56857;52.212;5.496;2024-01-30T07:05:10;102601.16;;;7.57;100.00
69630;BME280;56857;52.212;5.496;2024-01-30T07:07:35;102602.84;;;7.58;100.00
69630;BME280;56857;52.212;5.496;2024-01-30T07:10:01;102609.78;;;7.59;100.00
69630;BME280;56857;52.212;5.496;2024-01-30T07:12:26;102595.66;;;7.60;100.00
69630;BME280;56857;52.212;5.496;2024-01-30T07:14:52;102596.38;;;7.62;100.00
69630;BME280;56857;52.212;5.496;2024-01-30T07:17:17;102596.38;;;7.62;100.00
69630;BME280;56857;52.212;5.496;2024-01-30T07:19:43;102594.59;;;7.62;100.00
69630;BME280;56857;52.212;5.496;2024-01-30T07:22:08;102595.44;;;7.63;100.00
69630;BME280;56857;52.212;5.496;2024-01-30T07:24:34;102598.09;;;7.63;100.00
69630;BME280;56857;52.212;5.496;2024-01-30T07:26:59;102613.06;;;7.62;100.00
69630;BME280;56857;52.212;5.496;2024-01-30T07:29:25;102599.97;;;7.61;100.00
69630;BME280;56857;52.212;5.496;2024-01-30T07:31:50;102605.25;;;7.61;100.00
69630;BME280;56857;52.212;5.496;2024-01-30T07:34:16;102614.03;;;7.61;100.00
69630;BME280;56857;52.212;5.496;2024-01-30T07:36:41;102606.84;;;7.63;100.00
69630;BME280;56857;52.212;5.496;2024-01-30T07:39:06;102604.22;;;7.63;100.00
69630;BME280;56857;52.212;5.496;2024-01-30T07:41:32;102613.94;;;7.63;100.00
69630;BME280;56857;52.212;5.496;2024-01-30T07:43:57;102612.00;;;7.65;100.00
69630;BME280;56857;52.212;5.496;2024-01-30T07:46:22;102629.56;;;7.66;100.00
69630;BME280;56857;52.212;5.496;2024-01-30T07:48:47;102625.94;;;7.67;100.00
69630;BME280;56857;52.212;5.496;2024-01-30T07:51:13;102620.56;;;7.69;100.00
69630;BME280;56857;52.212;5.496;2024-01-30T07:53:38;102621.38;;;7.69;100.00
69630;BME280;56857;52.212;5.496;2024-01-30T07:56:05;102622.97;;;7.72;100.00
69630;BME280;56857;52.212;5.496;2024-01-30T07:58:30;102624.69;;;7.73;100.00
69630;BME280;56857;52.212;5.496;2024-01-30T08:00:56;102632.50;;;7.74;100.00
69630;BME280;56857;52.212;5.496;2024-01-30T08:03:21;102634.91;;;7.77;100.00
69630;BME280;56857;52.212;5.496;2024-01-30T08:05:46;102645.25;;;7.80;100.00
69630;BME280;56857;52.212;5.496;2024-01-30T08:08:11;102640.59;;;7.84;100.00
69630;BME280;56857;52.212;5.496;2024-01-30T08:10:37;102640.50;;;7.85;100.00
69630;BME280;56857;52.212;5.496;2024-01-30T08:13:02;102640.19;;;7.90;100.00
69630;BME280;56857;52.212;5.496;2024-01-30T08:15:28;102636.47;;;7.93;100.00
69630;BME280;56857;52.212;5.496;2024-01-30T08:17:53;102641.56;;;7.96;100.00
69630;BME280;56857;52.212;5.496;2024-01-30T08:20:18;102636.06;;;7.99;100.00
69630;BME280;56857;52.212;5.496;2024-01-30T08:22:44;102645.44;;;8.03;100.00
69630;BME280;56857;52.212;5.496;2024-01-30T08:25:09;102636.47;;;8.05;100.00
69630;BME280;56857;52.212;5.496;2024-01-30T08:27:34;102632.75;;;8.08;100.00
69630;BME280;56857;52.212;5.496;2024-01-30T08:30:00;102639.72;;;8.09;100.00
69630;BME280;56857;52.212;5.496;2024-01-30T08:32:25;102634.13;;;8.13;100.00
69630;BME280;56857;52.212;5.496;2024-01-30T08:34:50;102634.75;;;8.17;100.00
69630;BME280;56857;52.212;5.496;2024-01-30T08:37:15;102642.47;;;8.20;100.00
69630;BME280;56857;52.212;5.496;2024-01-30T08:39:41;102638.63;;;8.24;100.00
69630;BME280;56857;52.212;5.496;2024-01-30T08:42:06;102638.41;;;8.27;100.00
69630;BME280;56857;52.212;5.496;2024-01-30T08:44:31;102637.34;;;8.30;100.00
69630;BME280;56857;52.212;5.496;2024-01-30T08:46:57;102640.50;;;8.35;100.00
69630;BME280;56857;52.212;5.496;2024-01-30T08:49:22;102634.91;;;8.40;100.00
69630;BME280;56857;52.212;5.496;2024-01-30T08:51:47;102641.66;;;8.44;100.00
69630;BME280;56857;52.212;5.496;2024-01-30T08:54:13;102637.84;;;8.48;100.00
69630;BME280;56857;52.212;5.496;2024-01-30T08:56:38;102637.63;;;8.51;100.00
69630;BME280;56857;52.212;5.496;2024-01-30T08:59:03;102639.09;;;8.55;100.00
69630;BME280;56857;52.212;5.496;2024-01-30T09:01:29;102647.50;;;8.60;100.00
69630;BME280;56857;52.212;5.496;2024-01-30T09:03:54;102644.66;;;8.63;100.00
69630;BME280;56857;52.212;5.496;2024-01-30T09:06:19;102644.19;;;8.69;100.00
69630;BME280;56857;52.212;5.496;2024-01-30T09:08:44;102643.88;;;8.74;100.00
69630;BME280;56857;52.212;5.496;2024-01-30T09:11:11;102650.63;;;8.78;100.00
69630;BME280;56857;52.212;5.496;2024-01-30T09:13:37;102643.31;;;8.81;100.00
69630;BME280;56857;52.212;5.496;2024-01-30T09:16:02;102647.91;;;8.91;100.00
69630;BME280;56857;52.212;5.496;2024-01-30T09:18:28;102641.09;;;8.99;100.00
69630;BME280;56857;52.212;5.496;2024-01-30T09:20:53;102655.22;;;9.11;100.00
69630;BME280;56857;52.212;5.496;2024-01-30T09:23:18;102648.97;;;9.23;100.00
69630;BME280;56857;52.212;5.496;2024-01-30T09:25:44;102638.56;;;9.33;100.00
69630;BME280;56857;52.212;5.496;2024-01-30T09:28:09;102647.56;;;9.42;100.00
69630;BME280;56857;52.212;5.496;2024-01-30T09:30:34;102655.66;;;9.51;100.00
69630;BME280;56857;52.212;5.496;2024-01-30T09:33:00;102661.44;;;9.57;100.00
69630;BME280;56857;52.212;5.496;2024-01-30T09:35:25;102669.03;;;9.61;100.00
69630;BME280;56857;52.212;5.496;2024-01-30T09:37:50;102669.66;;;9.65;100.00
69630;BME280;56857;52.212;5.496;2024-01-30T09:40:16;102664.13;;;9.68;100.00
69630;BME280;56857;52.212;5.496;2024-01-30T09:42:42;102674.59;;;9.69;100.00
69630;BME280;56857;52.212;5.496;2024-01-30T09:45:10;102678.91;;;9.70;100.00
69630;BME280;56857;52.212;5.496;2024-01-30T09:47:42;102678.81;;;9.72;100.00
69630;BME280;56857;52.212;5.496;2024-01-30T09:50:10;102677.84;;;9.73;100.00
69630;BME280;56857;52.212;5.496;2024-01-30T09:52:35;102673.38;;;9.73;100.00
69630;BME280;56857;52.212;5.496;2024-01-30T09:55:01;102685.53;;;9.76;100.00
69630;BME280;56857;52.212;5.496;2024-01-30T09:57:26;102673.88;;;9.79;100.00
69630;BME280;56857;52.212;5.496;2024-01-30T09:59:52;102681.69;;;9.80;100.00
69630;BME280;56857;52.212;5.496;2024-01-30T10:02:18;102675.31;;;9.83;100.00
69630;BME280;56857;52.212;5.496;2024-01-30T10:04:44;102676.88;;;9.85;100.00
69630;BME280;56857;52.212;5.496;2024-01-30T10:07:10;102682.06;;;9.87;100.00
69630;BME280;56857;52.212;5.496;2024-01-30T10:09:36;102677.47;;;9.89;100.00
69630;BME280;56857;52.212;5.496;2024-01-30T10:12:02;102675.66;;;9.89;100.00
69630;BME280;56857;52.212;5.496;2024-01-30T10:14:27;102677.25;;;9.92;100.00
69630;BME280;56857;52.212;5.496;2024-01-30T10:16:52;102681.56;;;9.93;100.00
69630;BME280;56857;52.212;5.496;2024-01-30T10:19:18;102671.84;;;9.93;100.00
69630;BME280;56857;52.212;5.496;2024-01-30T10:21:43;102677.84;;;9.95;100.00
69630;BME280;56857;52.212;5.496;2024-01-30T10:24:09;102666.16;;;9.98;100.00
69630;BME280;56857;52.212;5.496;2024-01-30T10:26:37;102673.03;;;10.01;100.00
69630;BME280;56857;52.212;5.496;2024-01-30T10:29:03;102669.16;;;10.05;100.00
69630;BME280;56857;52.212;5.496;2024-01-30T10:31:28;102678.31;;;10.12;100.00
69630;BME280;56857;52.212;5.496;2024-01-30T10:33:53;102676.16;;;10.17;100.00
69630;BME280;56857;52.212;5.496;2024-01-30T10:36:25;102675.66;;;10.23;100.00
69630;BME280;56857;52.212;5.496;2024-01-30T10:38:55;102668.34;;;10.27;100.00
69630;BME280;56857;52.212;5.496;2024-01-30T10:41:26;102662.69;;;10.31;100.00
69630;BME280;56857;52.212;5.496;2024-01-30T10:44:03;102679.28;;;10.33;100.00
69630;BME280;56857;52.212;5.496;2024-01-30T10:46:33;102676.03;;;10.41;100.00
69630;BME280;56857;52.212;5.496;2024-01-30T10:49:00;102678.31;;;10.46;100.00
69630;BME280;56857;52.212;5.496;2024-01-30T10:51:26;102668.69;;;10.44;100.00
69630;BME280;56857;52.212;5.496;2024-01-30T10:53:52;102678.69;;;10.41;100.00
69630;BME280;56857;52.212;5.496;2024-01-30T10:56:20;102679.88;;;10.37;100.00
69630;BME280;56857;52.212;5.496;2024-01-30T10:58:46;102676.28;;;10.38;100.00
69630;BME280;56857;52.212;5.496;2024-01-30T11:01:12;102675.47;;;10.37;100.00
69630;BME280;56857;52.212;5.496;2024-01-30T11:03:38;102681.84;;;10.35;100.00
69630;BME280;56857;52.212;5.496;2024-01-30T11:06:04;102683.75;;;10.33;100.00
69630;BME280;56857;52.212;5.496;2024-01-30T11:08:32;102681.09;;;10.33;100.00
69630;BME280;56857;52.212;5.496;2024-01-30T11:10:58;102686.31;;;10.34;100.00
69630;BME280;56857;52.212;5.496;2024-01-30T11:13:27;102692.44;;;10.35;100.00
69630;BME280;56857;52.212;5.496;2024-01-30T11:15:52;102682.19;;;10.41;100.00
69630;BME280;56857;52.212;5.496;2024-01-30T11:18:30;102679.38;;;10.54;100.00
69630;BME280;56857;52.212;5.496;2024-01-30T11:21:01;102672.25;;;10.66;100.00
69630;BME280;56857;52.212;5.496;2024-01-30T11:23:27;102687.53;;;10.74;100.00
69630;BME280;56857;52.212;5.496;2024-01-30T11:25:53;102691.03;;;10.74;100.00
69630;BME280;56857;52.212;5.496;2024-01-30T11:28:21;102686.44;;;10.76;100.00
69630;BME280;56857;52.212;5.496;2024-01-30T11:30:46;102683.53;;;10.79;100.00
69630;BME280;56857;52.212;5.496;2024-01-30T11:33:12;102691.94;;;10.84;100.00
69630;BME280;56857;52.212;5.496;2024-01-30T11:35:42;102691.44;;;10.90;100.00
69630;BME280;56857;52.212;5.496;2024-01-30T11:38:09;102687.44;;;10.96;100.00
69630;BME280;56857;52.212;5.496;2024-01-30T11:40:37;102692.16;;;11.04;100.00
69630;BME280;56857;52.212;5.496;2024-01-30T11:43:04;102689.22;;;11.07;100.00
69630;BME280;56857;52.212;5.496;2024-01-30T11:45:30;102691.50;;;11.11;100.00
69630;BME280;56857;52.212;5.496;2024-01-30T11:47:55;102699.34;;;11.13;100.00
69630;BME280;56857;52.212;5.496;2024-01-30T11:50:21;102703.09;;;11.10;100.00
69630;BME280;56857;52.212;5.496;2024-01-30T11:52:47;102704.28;;;11.06;100.00
69630;BME280;56857;52.212;5.496;2024-01-30T11:55:14;102698.66;;;11.00;100.00
69630;BME280;56857;52.212;5.496;2024-01-30T11:57:39;102706.16;;;10.95;100.00
69630;BME280;56857;52.212;5.496;2024-01-30T12:00:05;102706.78;;;10.87;100.00
69630;BME280;56857;52.212;5.496;2024-01-30T12:02:31;102692.34;;;10.80;100.00
69630;BME280;56857;52.212;5.496;2024-01-30T12:04:57;102696.31;;;10.74;100.00
69630;BME280;56857;52.212;5.496;2024-01-30T12:07:22;102704.91;;;10.66;100.00
69630;BME280;56857;52.212;5.496;2024-01-30T12:09:56;102703.50;;;10.62;100.00
69630;BME280;56857;52.212;5.496;2024-01-30T12:12:24;102700.13;;;10.60;100.00
69630;BME280;56857;52.212;5.496;2024-01-30T12:14:50;102705.66;;;10.57;100.00
69630;BME280;56857;52.212;5.496;2024-01-30T12:17:42;102699.88;;;10.52;100.00
69630;BME280;56857;52.212;5.496;2024-01-30T12:20:09;102710.97;;;10.46;100.00
69630;BME280;56857;52.212;5.496;2024-01-30T12:22:40;102711.47;;;10.40;100.00
69630;BME280;56857;52.212;5.496;2024-01-30T12:25:16;102713.91;;;10.32;100.00
69630;BME280;56857;52.212;5.496;2024-01-30T12:27:43;102721.47;;;10.25;100.00
69630;BME280;56857;52.212;5.496;2024-01-30T12:30:09;102731.47;;;10.21;100.00
69630;BME280;56857;52.212;5.496;2024-01-30T12:32:45;102740.00;;;10.14;100.00
69630;BME280;56857;52.212;5.496;2024-01-30T12:35:18;102749.41;;;10.07;100.00
69630;BME280;56857;52.212;5.496;2024-01-30T12:37:44;102750.94;;;9.98;100.00
69630;BME280;56857;52.212;5.496;2024-01-30T12:40:12;102748.31;;;9.87;100.00